createdAt,value
2023-03-29T00:02:32.107Z,6.71
2023-03-29T00:07:53.518Z,6.67
2023-03-29T00:13:14.867Z,6.65
2023-03-29T00:18:36.380Z,6.56
2023-03-29T00:23:58.813Z,6.63
2023-03-29T00:29:20.092Z,6.46
2023-03-29T00:34:41.796Z,6.43
2023-03-29T00:40:06.557Z,6.40
2023-03-29T00:45:30.752Z,6.49
2023-03-29T00:51:01.339Z,6.49
2023-03-29T00:56:33.425Z,6.51
2023-03-29T01:02:01.385Z,6.47
2023-03-29T01:07:41.901Z,6.52
2023-03-29T01:13:23.541Z,6.66
2023-03-29T01:18:44.918Z,6.56
2023-03-29T01:24:29.954Z,6.56
2023-03-29T01:30:03.566Z,6.58
2023-03-29T01:35:40.355Z,6.65
2023-03-29T01:41:02.921Z,6.62
2023-03-29T01:46:48.363Z,6.70
2023-03-29T01:52:25.158Z,6.73
2023-03-29T01:57:49.197Z,6.65
2023-03-29T02:03:15.500Z,6.65
2023-03-29T02:08:39.478Z,6.64
2023-03-29T02:14:01.298Z,6.68
2023-03-29T02:19:24.921Z,6.64
2023-03-29T02:24:48.182Z,6.59
2023-03-29T02:30:11.776Z,6.62
2023-03-29T02:35:45.719Z,6.67
2023-03-29T02:41:08.981Z,6.62
2023-03-29T02:46:31.300Z,6.58
2023-03-29T02:51:57.376Z,6.69
2023-03-29T02:57:19.086Z,6.64
2023-03-29T03:02:43.469Z,6.68
2023-03-29T03:08:07.715Z,6.62
2023-03-29T03:13:29.277Z,6.74
2023-03-29T03:18:52.034Z,6.74
2023-03-29T03:24:14.089Z,6.73
2023-03-29T03:29:35.420Z,6.83
2023-03-29T03:35:23.528Z,6.79
2023-03-29T03:40:44.803Z,6.79
2023-03-29T03:46:06.334Z,6.77
2023-03-29T03:51:27.648Z,6.81
2023-03-29T03:56:49.323Z,6.90
2023-03-29T04:02:33.042Z,6.83
2023-03-29T04:07:54.795Z,6.82
2023-03-29T04:13:42.176Z,6.82
2023-03-29T04:19:24.058Z,6.88
2023-03-29T04:24:45.442Z,6.87
2023-03-29T04:30:24.752Z,6.85
2023-03-29T04:36:08.563Z,6.95
2023-03-29T04:41:30.053Z,6.90
2023-03-29T04:46:56.734Z,6.98
2023-03-29T04:52:36.617Z,7.01
2023-03-29T04:57:59.548Z,7.06
2023-03-29T05:03:28.745Z,6.99
2023-03-29T05:08:57.291Z,6.97
2023-03-29T05:14:26.523Z,7.03
2023-03-29T05:19:48.291Z,6.96
2023-03-29T05:25:10.604Z,6.97
2023-03-29T05:30:32.611Z,7.00
2023-03-29T05:36:07.645Z,7.02
2023-03-29T05:41:33.132Z,7.02
2023-03-29T05:46:57.077Z,7.12
2023-03-29T05:52:18.673Z,7.12
2023-03-29T05:57:40.994Z,7.13
2023-03-29T06:03:13.578Z,7.05
2023-03-29T06:08:42.215Z,7.04
2023-03-29T06:14:26.260Z,6.96
2023-03-29T06:20:00.984Z,7.07
2023-03-29T06:25:24.646Z,7.10
2023-03-29T06:30:46.574Z,7.17
2023-03-29T06:36:09.726Z,7.21
2023-03-29T06:41:31.269Z,7.25
2023-03-29T06:47:01.733Z,7.41
2023-03-29T06:52:23.343Z,7.34
2023-03-29T06:57:45.899Z,7.44
2023-03-29T07:03:09.979Z,7.52
2023-03-29T07:08:31.624Z,7.63
2023-03-29T07:13:56.567Z,7.68
2023-03-29T07:19:18.401Z,7.69
2023-03-29T07:25:07.226Z,7.94
2023-03-29T07:30:32.186Z,8.16
2023-03-29T07:36:10.324Z,8.17
2023-03-29T07:41:31.663Z,8.27
2023-03-29T07:46:58.940Z,8.26
2023-03-29T07:52:20.597Z,8.36
2023-03-29T07:57:42.445Z,8.25
2023-03-29T08:03:04.465Z,8.43
2023-03-29T08:08:25.953Z,8.75
2023-03-29T08:13:53.953Z,8.80
2023-03-29T08:19:37.781Z,8.94
2023-03-29T08:25:00.785Z,9.12
2023-03-29T08:30:28.293Z,9.05
2023-03-29T08:35:51.211Z,9.26
2023-03-29T08:41:47.085Z,9.16
2023-03-29T08:47:44.464Z,9.38
2023-03-29T08:53:36.420Z,9.48
2023-03-29T08:59:28.081Z,9.58
2023-03-29T09:04:50.855Z,9.82
2023-03-29T09:10:55.820Z,9.83
2023-03-29T09:16:42.791Z,9.95
2023-03-29T09:22:31.291Z,10.43
2023-03-29T09:28:06.532Z,11.84
2023-03-29T09:33:41.921Z,12.59
2023-03-29T09:39:13.420Z,12.54
2023-03-29T09:45:04.746Z,12.87
2023-03-29T09:50:48.485Z,12.73
2023-03-29T09:56:09.815Z,12.67
2023-03-29T10:02:08.664Z,12.86
2023-03-29T10:07:50.069Z,12.88
2023-03-29T10:13:21.137Z,13.03
2023-03-29T10:18:43.729Z,12.57
2023-03-29T10:24:05.574Z,12.27
2023-03-29T10:29:28.159Z,12.57
2023-03-29T10:34:51.240Z,12.64
2023-03-29T10:40:43.684Z,12.70
2023-03-29T10:46:29.453Z,12.88
2023-03-29T10:51:51.068Z,13.49
2023-03-29T10:57:26.515Z,13.06
2023-03-29T11:03:21.865Z,12.99
2023-03-29T11:09:16.900Z,13.51
2023-03-29T11:15:17.435Z,14.26
2023-03-29T11:20:46.155Z,14.81
2023-03-29T11:26:30.617Z,15.14
2023-03-29T11:32:08.045Z,15.22
2023-03-29T11:37:50.488Z,15.52
2023-03-29T11:43:36.059Z,15.63
2023-03-29T11:49:31.512Z,15.99
2023-03-29T11:55:12.170Z,16.26
2023-03-29T12:01:19.933Z,16.53
2023-03-29T12:07:06.558Z,16.20
2023-03-29T12:12:51.193Z,16.12
2023-03-29T12:18:32.822Z,16.67
2023-03-29T12:23:54.498Z,16.24
2023-03-29T12:29:55.062Z,16.79
2023-03-29T12:36:07.619Z,16.65
2023-03-29T12:41:48.470Z,16.71
2023-03-29T12:47:51.151Z,17.68
2023-03-29T12:53:52.711Z,17.39
2023-03-29T12:59:24.671Z,17.13
2023-03-29T13:04:54.530Z,16.92
2023-03-29T13:10:43.111Z,16.94
2023-03-29T13:16:17.406Z,17.19
2023-03-29T13:22:17.094Z,16.96
2023-03-29T13:28:02.483Z,16.73
2023-03-29T13:33:49.193Z,16.56
2023-03-29T13:39:21.287Z,16.09
2023-03-29T13:44:45.501Z,15.91
2023-03-29T13:50:16.485Z,15.78
2023-03-29T13:55:48.453Z,15.90
2023-03-29T14:01:47.014Z,16.26
2023-03-29T14:07:10.469Z,16.17
2023-03-29T14:12:41.187Z,16.05
2023-03-29T14:18:03.702Z,16.01
2023-03-29T14:23:28.738Z,16.07
2023-03-29T14:28:56.782Z,16.17
2023-03-29T14:34:20.024Z,16.29
2023-03-29T14:39:41.835Z,16.91
2023-03-29T14:45:07.099Z,16.94
2023-03-29T14:50:31.079Z,16.79
2023-03-29T14:55:53.787Z,16.76
2023-03-29T15:01:20.039Z,15.99
2023-03-29T15:06:43.780Z,15.91
2023-03-29T15:12:05.235Z,15.74
2023-03-29T15:17:47.760Z,15.66
2023-03-29T15:23:15.650Z,15.58
2023-03-29T15:28:48.459Z,15.40
2023-03-29T15:34:24.720Z,15.25
2023-03-29T15:39:46.009Z,14.99
2023-03-29T15:45:13.025Z,14.96
2023-03-29T15:50:34.382Z,14.61
2023-03-29T15:56:00.263Z,14.60
2023-03-29T16:01:35.708Z,14.53
2023-03-29T16:06:57.303Z,14.40
2023-03-29T16:12:18.934Z,14.36
2023-03-29T16:17:40.423Z,14.26
2023-03-29T16:23:01.992Z,14.11
2023-03-29T16:28:23.613Z,13.98
2023-03-29T16:33:45.151Z,13.74
2023-03-29T16:39:06.987Z,13.60
2023-03-29T16:44:28.131Z,13.50
2023-03-29T16:49:49.570Z,13.59
2023-03-29T16:55:13.551Z,13.53
2023-03-29T17:00:35.130Z,13.48
2023-03-29T17:05:56.333Z,13.37
2023-03-29T17:11:18.489Z,13.27
2023-03-29T17:16:40.322Z,13.09
2023-03-29T17:22:01.646Z,12.98
2023-03-29T17:27:23.275Z,12.75
2023-03-29T17:32:44.888Z,12.67
2023-03-29T17:38:06.414Z,12.63
2023-03-29T17:43:28.052Z,12.63
2023-03-29T17:48:49.833Z,12.64
2023-03-29T17:54:11.126Z,12.54
2023-03-29T17:59:32.582Z,12.54
2023-03-29T18:04:54.173Z,12.46
2023-03-29T18:10:15.855Z,12.42
2023-03-29T18:15:37.347Z,12.52
2023-03-29T18:20:59.809Z,12.45
2023-03-29T18:26:21.384Z,12.41
2023-03-29T18:31:43.103Z,12.38
2023-03-29T18:37:04.697Z,12.33
2023-03-29T18:42:26.353Z,12.52
2023-03-29T18:47:47.936Z,12.51
2023-03-29T18:53:09.366Z,12.54
2023-03-29T18:58:31.324Z,12.44
2023-03-29T19:03:52.791Z,12.41
2023-03-29T19:09:14.339Z,12.44
2023-03-29T19:14:35.906Z,12.40
2023-03-29T19:19:57.471Z,12.38
2023-03-29T19:25:19.316Z,12.41
2023-03-29T19:30:40.523Z,12.40
2023-03-29T19:36:02.493Z,12.40
2023-03-29T19:41:23.909Z,12.45
2023-03-29T19:46:46.560Z,12.39
2023-03-29T19:52:09.213Z,12.39
2023-03-29T19:57:30.628Z,12.54
2023-03-29T20:02:52.995Z,12.61
2023-03-29T20:08:14.251Z,12.54
2023-03-29T20:13:38.534Z,12.52
2023-03-29T20:19:04.703Z,12.43
2023-03-29T20:24:26.090Z,12.24
2023-03-29T20:29:47.488Z,12.16
2023-03-29T20:35:09.688Z,12.19
2023-03-29T20:40:31.061Z,12.26
2023-03-29T20:45:54.086Z,12.13
2023-03-29T20:51:16.191Z,12.06
2023-03-29T20:56:39.959Z,12.03
2023-03-29T21:02:01.864Z,12.16
2023-03-29T21:07:23.303Z,12.12
2023-03-29T21:12:44.689Z,12.18
2023-03-29T21:18:06.299Z,12.24
2023-03-29T21:23:27.801Z,12.30
2023-03-29T21:28:49.867Z,12.23
2023-03-29T21:34:11.467Z,12.23
2023-03-29T21:39:33.011Z,12.14
2023-03-29T21:44:54.577Z,12.11
2023-03-29T21:50:16.259Z,12.10
2023-03-29T21:55:37.928Z,12.12
2023-03-29T22:00:59.720Z,12.16
2023-03-29T22:06:21.183Z,12.21
2023-03-29T22:11:42.680Z,12.13
2023-03-29T22:17:06.080Z,12.27
2023-03-29T22:22:27.542Z,12.17
2023-03-29T22:27:49.616Z,12.16
2023-03-29T22:33:11.010Z,12.11
2023-03-29T22:38:32.585Z,12.14
2023-03-29T22:43:56.313Z,12.25
2023-03-29T22:49:17.789Z,12.27
2023-03-29T22:54:39.332Z,12.28
2023-03-29T23:00:00.867Z,12.30
2023-03-29T23:05:22.553Z,12.27
2023-03-29T23:10:45.191Z,12.30
2023-03-29T23:16:07.377Z,12.36
2023-03-29T23:21:28.746Z,12.42
2023-03-29T23:26:50.088Z,12.35
2023-03-29T23:32:12.426Z,12.24
2023-03-29T23:37:33.719Z,12.22
2023-03-29T23:42:55.821Z,12.22
2023-03-29T23:48:17.401Z,12.19
2023-03-29T23:53:38.935Z,12.21
2023-03-29T23:59:00.362Z,12.18
